createdAt,value
2018-06-11T00:01:46.163Z,14.36
2018-06-11T00:04:14.803Z,14.34
2018-06-11T00:06:43.581Z,14.37
2018-06-11T00:09:12.479Z,14.32
2018-06-11T00:11:41.085Z,14.27
2018-06-11T00:14:09.876Z,14.24
2018-06-11T00:16:38.647Z,14.18
2018-06-11T00:19:07.451Z,14.17
2018-06-11T00:21:36.222Z,14.14
2018-06-11T00:24:05.142Z,14.12
2018-06-11T00:26:33.877Z,14.09
2018-06-11T00:29:02.596Z,14.14
2018-06-11T00:31:31.555Z,14.22
2018-06-11T00:34:00.306Z,14.29
2018-06-11T00:36:29.032Z,14.33
2018-06-11T00:38:57.701Z,14.34
2018-06-11T00:41:26.973Z,14.35
2018-06-11T00:43:55.790Z,14.35
2018-06-11T00:46:24.498Z,14.35
2018-06-11T00:48:53.289Z,14.33
2018-06-11T00:51:22.131Z,14.31
2018-06-11T00:53:50.848Z,14.28
2018-06-11T00:56:19.585Z,14.23
2018-06-11T00:58:48.430Z,14.20
2018-06-11T01:01:17.351Z,14.18
2018-06-11T01:03:46.281Z,14.11
2018-06-11T01:06:15.047Z,14.10
2018-06-11T01:08:45.559Z,14.01
2018-06-11T01:11:14.472Z,13.95
2018-06-11T01:13:43.182Z,13.89
2018-06-11T01:16:11.980Z,13.89
2018-06-11T01:18:40.668Z,13.83
2018-06-11T01:21:09.441Z,13.76
2018-06-11T01:23:38.383Z,13.76
2018-06-11T01:26:07.117Z,13.73
2018-06-11T01:28:35.873Z,13.68
2018-06-11T01:31:04.851Z,13.64
2018-06-11T01:33:33.678Z,13.62
2018-06-11T01:36:02.302Z,13.61
2018-06-11T01:38:31.164Z,13.59
2018-06-11T01:40:59.780Z,13.53
2018-06-11T01:43:28.458Z,13.52
2018-06-11T01:45:57.070Z,13.49
2018-06-11T01:48:25.977Z,13.43
2018-06-11T01:50:54.705Z,13.45
2018-06-11T01:53:23.379Z,13.40
2018-06-11T01:55:52.038Z,13.40
2018-06-11T01:58:20.724Z,13.40
2018-06-11T02:00:49.487Z,13.34
2018-06-11T02:03:18.344Z,13.35
2018-06-11T02:05:47.164Z,13.30
2018-06-11T02:08:15.923Z,13.27
2018-06-11T02:10:44.629Z,13.22
2018-06-11T02:13:13.350Z,13.20
2018-06-11T02:15:48.546Z,13.18
2018-06-11T02:18:17.519Z,13.19
2018-06-11T02:20:46.118Z,13.13
2018-06-11T02:23:15.088Z,13.09
2018-06-11T02:25:43.953Z,13.11
2018-06-11T02:28:12.718Z,13.10
2018-06-11T02:30:41.337Z,13.13
2018-06-11T02:33:10.058Z,13.10
2018-06-11T02:35:38.707Z,13.09
2018-06-11T02:38:07.531Z,13.15
2018-06-11T02:40:36.423Z,13.16
2018-06-11T02:43:05.413Z,13.15
2018-06-11T02:45:34.063Z,13.18
2018-06-11T02:48:02.819Z,13.17
2018-06-11T02:50:31.755Z,13.10
2018-06-11T02:53:00.409Z,13.16
2018-06-11T02:55:29.205Z,13.07
2018-06-11T02:57:58.167Z,13.11
2018-06-11T03:00:26.942Z,13.08
2018-06-11T03:02:55.805Z,13.06
2018-06-11T03:05:24.428Z,13.04
2018-06-11T03:07:53.161Z,13.06
2018-06-11T03:10:21.882Z,13.02
2018-06-11T03:12:50.489Z,13.05
2018-06-11T03:15:19.175Z,13.00
2018-06-11T03:17:48.041Z,13.03
2018-06-11T03:20:16.652Z,13.04
2018-06-11T03:22:45.569Z,13.09
2018-06-11T03:25:14.151Z,13.09
2018-06-11T03:27:42.905Z,13.04
2018-06-11T03:30:11.583Z,13.06
2018-06-11T03:32:40.527Z,13.09
2018-06-11T03:35:09.442Z,13.12
2018-06-11T03:37:38.193Z,13.15
2018-06-11T03:40:06.936Z,13.14
2018-06-11T03:42:35.793Z,13.15
2018-06-11T03:45:04.616Z,13.11
2018-06-11T03:47:33.382Z,13.05
2018-06-11T03:50:02.253Z,13.17
2018-06-11T03:52:30.969Z,13.20
2018-06-11T03:54:59.619Z,13.26
2018-06-11T03:57:28.439Z,13.29
2018-06-11T03:59:57.233Z,13.23
2018-06-11T04:02:25.975Z,13.30
2018-06-11T04:04:55.193Z,13.37
2018-06-11T04:07:24.189Z,13.41
2018-06-11T04:09:52.877Z,13.42
2018-06-11T04:12:21.678Z,13.50
2018-06-11T04:14:50.383Z,13.48
2018-06-11T04:17:19.089Z,13.56
2018-06-11T04:19:47.755Z,13.68
2018-06-11T04:22:16.433Z,13.72
2018-06-11T04:24:45.072Z,13.75
2018-06-11T04:27:13.824Z,13.79
2018-06-11T04:29:42.631Z,13.86
2018-06-11T04:32:11.270Z,13.97
2018-06-11T04:34:39.924Z,14.08
2018-06-11T04:37:08.584Z,14.17
2018-06-11T04:39:37.379Z,14.30
2018-06-11T04:42:06.166Z,14.32
2018-06-11T04:44:35.143Z,14.41
2018-06-11T04:47:03.923Z,14.31
2018-06-11T04:49:32.667Z,14.37
2018-06-11T04:52:01.678Z,14.45
2018-06-11T04:54:30.365Z,14.56
2018-06-11T04:56:59.024Z,14.65
2018-06-11T04:59:27.678Z,14.77
2018-06-11T05:01:56.300Z,14.86
2018-06-11T05:04:25.108Z,14.81
2018-06-11T05:06:53.759Z,14.89
2018-06-11T05:09:22.904Z,14.91
2018-06-11T05:11:51.730Z,14.92
2018-06-11T05:14:20.507Z,15.01
2018-06-11T05:16:49.220Z,14.97
2018-06-11T05:19:17.926Z,14.00
2018-06-11T05:21:46.808Z,15.13
2018-06-11T05:24:15.637Z,15.16
2018-06-11T05:26:44.552Z,15.09
2018-06-11T05:29:13.306Z,15.18
2018-06-11T05:31:42.063Z,15.33
2018-06-11T05:34:10.902Z,15.45
2018-06-11T05:36:39.604Z,15.60
2018-06-11T05:39:08.803Z,15.54
2018-06-11T05:41:37.832Z,15.52
2018-06-11T05:44:06.457Z,15.51
2018-06-11T05:46:35.264Z,15.58
2018-06-11T05:49:04.034Z,15.66
2018-06-11T05:51:32.849Z,15.65
2018-06-11T05:54:01.893Z,15.64
2018-06-11T05:56:30.556Z,15.74
2018-06-11T05:58:59.334Z,15.86
2018-06-11T06:01:28.039Z,15.91
2018-06-11T06:03:57.031Z,15.85
2018-06-11T06:06:25.665Z,15.88
2018-06-11T06:08:54.565Z,16.01
2018-06-11T06:11:23.492Z,15.77
2018-06-11T06:13:52.130Z,15.91
2018-06-11T06:16:20.857Z,16.14
2018-06-11T06:18:49.789Z,16.28
2018-06-11T06:21:18.503Z,16.17
2018-06-11T06:23:47.581Z,16.08
2018-06-11T06:26:16.300Z,16.07
2018-06-11T06:28:44.918Z,16.25
2018-06-11T06:31:13.770Z,16.41
2018-06-11T06:33:42.432Z,16.50
2018-06-11T06:36:11.243Z,16.59
2018-06-11T06:38:39.958Z,16.82
2018-06-11T06:41:08.713Z,16.81
2018-06-11T06:43:38.037Z,16.72
2018-06-11T06:46:06.931Z,16.93
2018-06-11T06:48:35.709Z,16.86
2018-06-11T06:51:04.377Z,16.90
2018-06-11T06:53:33.127Z,17.02
2018-06-11T06:56:02.471Z,16.88
2018-06-11T06:58:31.245Z,16.91
2018-06-11T07:01:01.160Z,16.81
2018-06-11T07:03:29.897Z,16.79
2018-06-11T07:05:58.620Z,16.93
2018-06-11T07:08:27.409Z,17.21
2018-06-11T07:10:56.091Z,17.38
2018-06-11T07:13:25.116Z,17.45
2018-06-11T07:15:53.952Z,17.55
2018-06-11T07:18:22.848Z,17.64
2018-06-11T07:20:51.593Z,17.37
2018-06-11T07:23:20.381Z,17.32
2018-06-11T07:25:49.073Z,17.51
2018-06-11T07:28:18.223Z,17.49
2018-06-11T07:30:46.967Z,17.52
2018-06-11T07:33:15.984Z,17.38
2018-06-11T07:35:45.012Z,17.32
2018-06-11T07:38:13.729Z,17.38
2018-06-11T07:40:42.476Z,17.69
2018-06-11T07:43:11.301Z,17.87
2018-06-11T07:45:39.935Z,17.89
2018-06-11T07:48:08.739Z,18.00
2018-06-11T07:50:37.657Z,17.91
2018-06-11T07:53:06.508Z,18.12
2018-06-11T07:55:35.320Z,18.33
2018-06-11T07:58:04.255Z,18.33
2018-06-11T08:00:32.916Z,18.46
2018-06-11T08:03:01.834Z,18.73
2018-06-11T08:05:30.762Z,18.46
2018-06-11T08:07:59.790Z,18.42
2018-06-11T08:10:29.717Z,18.38
2018-06-11T08:12:58.802Z,18.34
2018-06-11T08:15:27.577Z,18.21
2018-06-11T08:17:56.535Z,18.21
2018-06-11T08:20:25.169Z,18.53
2018-06-11T08:22:53.778Z,18.60
2018-06-11T08:25:22.664Z,18.90
2018-06-11T08:27:51.396Z,18.88
2018-06-11T08:30:20.436Z,19.13
2018-06-11T08:32:49.262Z,19.18
2018-06-11T08:35:18.161Z,19.29
2018-06-11T08:37:46.934Z,19.44
2018-06-11T08:40:15.620Z,19.67
2018-06-11T08:42:44.388Z,19.62
2018-06-11T08:45:13.205Z,19.34
2018-06-11T08:47:42.432Z,19.23
2018-06-11T08:50:12.022Z,19.09
2018-06-11T08:52:41.023Z,19.22
2018-06-11T08:55:09.860Z,19.29
2018-06-11T08:57:39.433Z,19.34
2018-06-11T09:00:08.595Z,19.73
2018-06-11T09:02:37.390Z,19.95
2018-06-11T09:05:06.603Z,19.74
2018-06-11T09:07:35.268Z,19.73
2018-06-11T09:10:04.036Z,19.84
2018-06-11T09:12:32.807Z,20.06
2018-06-11T09:15:01.574Z,20.28
2018-06-11T09:17:30.544Z,20.17
2018-06-11T09:19:59.245Z,20.15
2018-06-11T09:22:28.098Z,20.13
2018-06-11T09:24:57.089Z,19.93
2018-06-11T09:30:57.923Z,20.21
2018-06-11T09:33:26.805Z,20.26
2018-06-11T09:35:55.572Z,20.55
2018-06-11T09:38:24.554Z,20.36
2018-06-11T09:40:53.216Z,20.51
2018-06-11T09:43:21.835Z,20.76
2018-06-11T09:45:50.611Z,20.99
2018-06-11T09:48:19.869Z,21.06
2018-06-11T09:50:48.706Z,20.56
2018-06-11T09:53:17.394Z,20.51
2018-06-11T09:55:46.058Z,20.66
2018-06-11T09:58:14.658Z,20.81
2018-06-11T10:00:43.367Z,20.63
2018-06-11T10:03:12.037Z,21.35
2018-06-11T10:05:40.827Z,21.53
2018-06-11T10:08:09.470Z,21.46
2018-06-11T10:10:38.176Z,21.55
2018-06-11T10:13:07.035Z,22.04
2018-06-11T10:15:35.660Z,21.84
2018-06-11T10:18:04.764Z,21.87
2018-06-11T10:20:33.378Z,21.93
2018-06-11T10:23:02.088Z,21.58
2018-06-11T10:25:31.048Z,21.60
2018-06-11T10:27:59.869Z,21.94
2018-06-11T10:30:28.609Z,22.10
2018-06-11T10:32:57.205Z,22.52
2018-06-11T10:35:25.934Z,22.55
2018-06-11T10:37:54.693Z,22.65
2018-06-11T10:40:23.373Z,22.64
2018-06-11T10:42:52.265Z,22.83
2018-06-11T10:45:21.277Z,22.86
2018-06-11T10:47:49.856Z,23.04
2018-06-11T10:50:18.509Z,23.26
2018-06-11T10:52:47.139Z,23.48
2018-06-11T10:55:15.887Z,23.92
2018-06-11T10:57:44.736Z,23.74
2018-06-11T11:00:13.526Z,23.42
2018-06-11T11:02:42.453Z,23.43
2018-06-11T11:05:11.072Z,23.68
2018-06-11T11:07:39.740Z,23.46
2018-06-11T11:10:08.512Z,23.69
2018-06-11T11:12:37.268Z,23.74
2018-06-11T11:15:06.076Z,23.85
2018-06-11T11:17:34.715Z,24.20
2018-06-11T11:20:04.012Z,24.39
2018-06-11T11:22:32.790Z,24.85
2018-06-11T11:25:01.832Z,24.67
2018-06-11T11:27:30.677Z,24.76
2018-06-11T11:29:59.434Z,24.80
2018-06-11T11:32:28.127Z,25.25
2018-06-11T11:34:56.989Z,25.40
2018-06-11T11:37:25.812Z,25.15
2018-06-11T11:39:54.504Z,25.50
2018-06-11T11:42:23.393Z,25.70
2018-06-11T11:44:52.504Z,25.99
2018-06-11T11:47:21.144Z,26.32
2018-06-11T11:49:49.869Z,26.49
2018-06-11T11:52:18.603Z,26.19
2018-06-11T11:54:51.993Z,25.96
2018-06-11T11:57:20.873Z,26.25
2018-06-11T11:59:49.606Z,26.55
2018-06-11T12:02:18.587Z,27.15
2018-06-11T12:04:47.327Z,27.09
2018-06-11T12:07:16.009Z,27.33
2018-06-11T12:09:44.984Z,27.60
2018-06-11T12:12:13.615Z,27.48
2018-06-11T12:14:42.221Z,27.47
2018-06-11T12:17:11.194Z,27.83
2018-06-11T12:19:40.010Z,28.18
2018-06-11T12:22:08.997Z,28.45
2018-06-11T12:24:37.922Z,28.13
2018-06-11T12:27:06.766Z,27.41
2018-06-11T12:29:35.864Z,27.81
2018-06-11T12:32:04.859Z,29.26
2018-06-11T12:34:33.557Z,30.87
2018-06-11T12:37:02.355Z,32.20
2018-06-11T12:39:31.023Z,33.39
2018-06-11T12:41:59.816Z,34.55
2018-06-11T12:44:28.560Z,36.22
2018-06-11T12:46:57.452Z,36.04
2018-06-11T12:49:26.388Z,35.94
2018-06-11T12:51:55.094Z,36.92
2018-06-11T12:54:23.844Z,35.65
2018-06-11T12:56:52.723Z,33.82
2018-06-11T12:59:21.698Z,32.57
2018-06-11T13:01:50.285Z,31.23
2018-06-11T13:04:19.038Z,29.34
2018-06-11T13:06:47.848Z,28.99
2018-06-11T13:09:16.707Z,29.23
2018-06-11T13:11:45.397Z,32.27
2018-06-11T13:14:14.228Z,31.66
2018-06-11T13:16:43.140Z,31.18
2018-06-11T13:19:12.065Z,32.42
2018-06-11T13:21:40.989Z,33.66
2018-06-11T13:24:11.310Z,34.70
2018-06-11T13:26:40.284Z,31.29
2018-06-11T13:29:09.158Z,31.08
2018-06-11T13:31:37.905Z,31.42
2018-06-11T13:34:07.071Z,29.49
2018-06-11T13:36:35.761Z,27.32
2018-06-11T13:39:07.132Z,26.16
2018-06-11T13:41:35.909Z,27.45
2018-06-11T13:44:04.754Z,26.46
2018-06-11T13:46:33.490Z,27.56
2018-06-11T13:49:02.408Z,28.60
2018-06-11T13:51:31.337Z,29.07
2018-06-11T13:53:59.923Z,28.15
2018-06-11T13:56:28.542Z,28.26
2018-06-11T13:58:57.524Z,27.31
2018-06-11T14:01:26.448Z,27.12
2018-06-11T14:03:55.271Z,25.25
2018-06-11T14:06:24.033Z,24.36
2018-06-11T14:08:52.735Z,23.89
2018-06-11T14:11:21.452Z,23.97
2018-06-11T14:13:50.321Z,23.99
2018-06-11T14:16:19.094Z,24.18
2018-06-11T14:18:47.944Z,24.10
2018-06-11T14:21:16.690Z,23.62
2018-06-11T14:23:46.008Z,23.84
2018-06-11T14:26:14.592Z,23.78
2018-06-11T14:28:43.395Z,24.44
2018-06-11T14:31:12.231Z,24.56
2018-06-11T14:33:41.002Z,24.40
2018-06-11T14:36:09.778Z,24.49
2018-06-11T14:38:38.670Z,24.63
2018-06-11T14:41:07.404Z,20.83
2018-06-11T14:43:36.211Z,24.94
2018-06-11T14:46:05.303Z,25.28
2018-06-11T14:48:34.107Z,25.36
2018-06-11T14:51:02.988Z,25.53
2018-06-11T14:53:31.895Z,26.23
2018-06-11T14:56:00.547Z,26.48
2018-06-11T14:58:29.500Z,26.40
2018-06-11T15:00:58.165Z,26.68
2018-06-11T15:03:27.027Z,27.09
2018-06-11T15:05:55.972Z,27.84
2018-06-11T15:08:25.172Z,29.10
2018-06-11T15:10:54.166Z,28.58
2018-06-11T15:13:23.269Z,27.05
2018-06-11T15:15:52.193Z,26.55
2018-06-11T15:18:20.812Z,26.12
2018-06-11T15:20:49.441Z,25.88
2018-06-11T15:23:18.328Z,25.01
2018-06-11T15:25:47.418Z,24.09
2018-06-11T15:28:16.179Z,22.99
2018-06-11T15:30:45.060Z,22.28
2018-06-11T15:33:13.680Z,21.84
2018-06-11T15:35:42.516Z,21.71
2018-06-11T15:38:11.206Z,21.12
2018-06-11T15:40:40.123Z,21.12
2018-06-11T15:43:08.867Z,20.82
2018-06-11T15:45:37.522Z,20.83
2018-06-11T15:48:06.350Z,20.55
2018-06-11T15:50:35.417Z,20.72
2018-06-11T15:53:04.063Z,20.79
2018-06-11T15:55:32.840Z,20.67
2018-06-11T15:58:01.564Z,20.71
2018-06-11T16:00:30.434Z,20.74
2018-06-11T16:02:59.140Z,20.60
2018-06-11T16:05:27.949Z,20.56
2018-06-11T16:07:56.685Z,20.31
2018-06-11T16:10:25.715Z,20.19
2018-06-11T16:12:54.629Z,20.16
2018-06-11T16:15:23.750Z,19.99
2018-06-11T16:17:52.737Z,19.76
2018-06-11T16:20:21.831Z,19.88
2018-06-11T16:22:50.681Z,19.74
2018-06-11T16:25:19.504Z,19.52
2018-06-11T16:27:48.404Z,19.60
2018-06-11T16:30:17.080Z,19.64
2018-06-11T16:32:46.172Z,19.55
2018-06-11T16:35:14.827Z,19.54
2018-06-11T16:37:43.798Z,19.36
2018-06-11T16:40:12.510Z,19.35
2018-06-11T16:42:41.163Z,19.29
2018-06-11T16:45:10.028Z,19.40
2018-06-11T16:47:38.944Z,19.50
2018-06-11T16:50:07.710Z,19.31
2018-06-11T16:52:36.773Z,19.23
2018-06-11T16:55:05.591Z,19.10
2018-06-11T16:57:34.360Z,19.14
2018-06-11T17:00:03.122Z,19.04
2018-06-11T17:02:32.163Z,19.10
2018-06-11T17:05:00.741Z,19.02
2018-06-11T17:07:29.459Z,18.97
2018-06-11T17:09:58.215Z,18.90
2018-06-11T17:12:26.847Z,18.90
2018-06-11T17:14:55.501Z,18.94
2018-06-11T17:17:24.324Z,18.79
2018-06-11T17:19:53.284Z,18.62
2018-06-11T17:22:21.924Z,18.58
2018-06-11T17:24:50.697Z,18.49
2018-06-11T17:27:19.780Z,18.31
2018-06-11T17:29:48.673Z,18.40
2018-06-11T17:32:17.544Z,18.32
2018-06-11T17:34:46.459Z,18.28
2018-06-11T17:37:15.596Z,18.21
2018-06-11T17:39:44.922Z,18.12
2018-06-11T17:42:15.550Z,18.11
2018-06-11T17:44:44.567Z,18.19
2018-06-11T17:47:13.771Z,18.07
2018-06-11T17:49:42.492Z,17.95
2018-06-11T17:52:11.322Z,17.62
2018-06-11T17:54:40.277Z,17.58
2018-06-11T17:57:09.125Z,17.59
2018-06-11T17:59:37.909Z,17.66
2018-06-11T18:02:07.259Z,17.59
2018-06-11T18:04:36.765Z,17.45
2018-06-11T18:07:05.825Z,17.36
2018-06-11T18:09:34.944Z,17.34
2018-06-11T18:12:03.796Z,17.33
2018-06-11T18:14:32.544Z,17.33
2018-06-11T18:17:01.205Z,17.31
2018-06-11T18:19:29.886Z,17.24
2018-06-11T18:21:58.703Z,17.18
2018-06-11T18:24:27.430Z,17.02
2018-06-11T18:26:56.355Z,17.04
2018-06-11T18:29:25.498Z,17.06
2018-06-11T18:31:54.234Z,17.09
2018-06-11T18:34:22.892Z,15.19
2018-06-11T18:36:51.749Z,16.90
2018-06-11T18:39:20.857Z,16.84
2018-06-11T18:41:49.712Z,16.78
2018-06-11T18:44:18.384Z,16.74
2018-06-11T18:46:47.181Z,16.68
2018-06-11T18:49:16.257Z,16.62
2018-06-11T18:51:44.876Z,16.56
2018-06-11T18:54:13.464Z,16.49
2018-06-11T18:56:42.147Z,16.38
2018-06-11T18:59:10.868Z,16.39
2018-06-11T19:01:39.560Z,16.35
2018-06-11T19:04:08.292Z,16.31
2018-06-11T19:06:36.958Z,16.26
2018-06-11T19:09:07.961Z,16.29
2018-06-11T19:11:36.888Z,16.21
2018-06-11T19:14:06.302Z,16.19
2018-06-11T19:16:35.521Z,16.17
2018-06-11T19:19:04.475Z,16.20
2018-06-11T19:21:33.651Z,16.24
2018-06-11T19:24:02.643Z,16.10
2018-06-11T19:26:31.457Z,16.18
2018-06-11T19:29:00.174Z,16.20
2018-06-11T19:31:28.947Z,16.20
2018-06-11T19:33:57.690Z,16.18
2018-06-11T19:36:26.831Z,16.16
2018-06-11T19:38:55.514Z,16.04
2018-06-11T19:41:24.420Z,16.07
2018-06-11T19:43:53.255Z,16.03
2018-06-11T19:46:22.501Z,16.05
2018-06-11T19:48:51.194Z,16.05
2018-06-11T19:51:20.093Z,16.01
2018-06-11T19:53:48.972Z,16.00
2018-06-11T19:56:17.697Z,15.87
2018-06-11T19:58:46.383Z,15.88
2018-06-11T20:01:15.477Z,15.85
2018-06-11T20:03:45.079Z,15.87
2018-06-11T20:06:13.738Z,15.87
2018-06-11T20:08:42.507Z,15.81
2018-06-11T20:11:11.361Z,15.80
2018-06-11T20:13:40.196Z,15.80
2018-06-11T20:16:09.243Z,15.75
2018-06-11T20:18:38.263Z,15.70
2018-06-11T20:21:07.247Z,15.65
2018-06-11T20:23:36.047Z,15.63
2018-06-11T20:26:04.916Z,15.62
2018-06-11T20:28:33.788Z,15.59
2018-06-11T20:31:02.469Z,15.56
2018-06-11T20:33:31.078Z,15.51
2018-06-11T20:35:59.976Z,15.41
2018-06-11T20:38:31.277Z,15.36
2018-06-11T20:41:00.554Z,15.28
2018-06-11T20:46:06.119Z,15.12
2018-06-11T20:48:37.957Z,15.08
2018-06-11T20:51:07.744Z,15.02
2018-06-11T20:53:36.665Z,14.95
2018-06-11T20:56:05.592Z,14.89
2018-06-11T20:58:37.905Z,14.83
2018-06-11T21:01:11.964Z,14.81
2018-06-11T21:03:41.095Z,14.77
2018-06-11T21:06:16.650Z,14.74
2018-06-11T21:08:47.111Z,14.72
2018-06-11T21:11:19.783Z,14.72
2018-06-11T21:13:48.542Z,14.74
2018-06-11T21:16:17.417Z,14.67
2018-06-11T21:18:46.542Z,14.72
2018-06-11T21:21:18.066Z,14.71
2018-06-11T21:23:51.048Z,14.70
2018-06-11T21:26:19.823Z,14.75
2018-06-11T21:28:53.164Z,14.78
2018-06-11T21:31:22.940Z,14.76
2018-06-11T21:33:54.134Z,14.75
2018-06-11T21:36:29.201Z,14.79
2018-06-11T21:39:07.238Z,14.80
2018-06-11T21:41:36.335Z,14.78
2018-06-11T21:44:10.157Z,14.79
2018-06-11T21:46:39.077Z,14.80
2018-06-11T21:49:07.758Z,14.75
2018-06-11T21:51:36.842Z,14.73
2018-06-11T21:54:05.741Z,14.72
2018-06-11T21:56:39.799Z,14.72
2018-06-11T21:59:12.370Z,14.69
2018-06-11T22:01:45.778Z,14.65
2018-06-11T22:04:19.291Z,14.62
2018-06-11T22:06:53.654Z,14.62
2018-06-11T22:09:26.626Z,14.63
2018-06-11T22:11:55.438Z,14.65
2018-06-11T22:14:24.213Z,14.62
2018-06-11T22:16:53.203Z,14.60
2018-06-11T22:19:22.316Z,14.59
2018-06-11T22:21:51.034Z,14.60
2018-06-11T22:24:19.823Z,14.60
2018-06-11T22:26:48.608Z,14.57
2018-06-11T22:29:17.560Z,14.57
2018-06-11T22:31:46.324Z,14.54
2018-06-11T22:34:15.122Z,14.50
2018-06-11T22:36:44.179Z,14.51
2018-06-11T22:39:13.415Z,14.51
2018-06-11T22:41:42.193Z,14.47
2018-06-11T22:44:11.353Z,14.44
2018-06-11T22:46:40.287Z,14.44
2018-06-11T22:49:09.083Z,14.41
2018-06-11T22:51:38.030Z,14.41
2018-06-11T22:54:06.878Z,14.43
2018-06-11T22:56:35.771Z,14.43
2018-06-11T22:59:04.585Z,14.42
2018-06-11T23:01:33.413Z,14.41
2018-06-11T23:04:02.188Z,14.43
2018-06-11T23:06:30.997Z,14.41
2018-06-11T23:08:59.837Z,14.41
2018-06-11T23:11:28.655Z,14.43
2018-06-11T23:13:57.497Z,14.37
2018-06-11T23:16:26.296Z,14.19
2018-06-11T23:18:55.102Z,14.15
2018-06-11T23:21:23.922Z,14.17
2018-06-11T23:23:52.672Z,14.21
2018-06-11T23:26:21.477Z,14.21
2018-06-11T23:28:50.244Z,14.23
2018-06-11T23:31:19.124Z,14.17
2018-06-11T23:33:47.862Z,14.18
2018-06-11T23:36:16.897Z,14.23
2018-06-11T23:38:45.714Z,14.25
2018-06-11T23:41:14.549Z,14.25
2018-06-11T23:43:43.302Z,14.26
2018-06-11T23:46:12.315Z,14.24
2018-06-11T23:48:41.079Z,14.26
2018-06-11T23:51:09.852Z,14.23
2018-06-11T23:53:38.607Z,14.23
2018-06-11T23:56:07.399Z,14.23
2018-06-11T23:58:36.303Z,14.19
